Egues-Uharte, Spain
Current Conditions -  °F | °C
As of 12:00 AM on Sunday 23 Nov 2014 (Local Time) from LEPP Reporting Station
Haze Haze  
Wind Chill: 52°   Ceiling: Unl
Heat Index: 52°   Visibility: 2.5mi
Dew Point: 52°   Wind: 5mph
Humidity: 100%   Direction: 70°ENE
Pressure: 30"   Gusts: NA
Location:  42.83°N, 1.59°W
Report Text: LEPP 222300Z 07004KT 050V110 4000 BR FEW015 11/11 Q1016
Loading
Personal Weather Stations






























Interactive Weather Map New forecast layout! Learn more

10-Day Weather Forecast

Advertisements
Track Severe Weather on mobile